createdAt,value
2022-08-17T06:13:58.002Z,100.00
2022-08-17T06:23:57.912Z,100.00
2022-08-17T06:33:58.161Z,100.00
2022-08-17T06:43:58.138Z,100.00
2022-08-17T06:53:58.045Z,95.96
2022-08-17T07:03:58.215Z,92.83
2022-08-17T07:13:58.241Z,84.51
2022-08-17T07:23:58.118Z,78.09
2022-08-17T07:33:58.174Z,75.44
2022-08-17T07:43:58.113Z,71.71
2022-08-17T07:54:13.094Z,68.39
2022-08-17T08:03:58.203Z,64.16
2022-08-17T08:13:58.130Z,60.39
2022-08-17T08:23:58.200Z,58.65
2022-08-17T08:33:58.164Z,56.60
2022-08-17T08:43:58.217Z,56.70
2022-08-17T08:53:58.246Z,54.41
2022-08-17T09:04:17.021Z,51.62
2022-08-17T09:13:58.256Z,48.80
2022-08-17T09:23:58.197Z,48.21
2022-08-17T09:33:58.178Z,48.73
2022-08-17T09:43:58.326Z,46.80
2022-08-17T09:54:14.694Z,46.83
2022-08-17T10:03:58.242Z,45.80
2022-08-17T10:13:59.603Z,45.29
2022-08-17T10:23:58.258Z,44.33
2022-08-17T10:33:58.324Z,44.77
2022-08-17T10:44:39.055Z,44.48
2022-08-17T10:53:58.424Z,43.00
2022-08-17T11:03:58.403Z,42.06
2022-08-17T11:13:58.280Z,41.16
2022-08-17T11:23:58.641Z,41.75
2022-08-17T11:33:58.417Z,41.05
2022-08-17T11:43:58.441Z,39.87
2022-08-17T11:54:21.682Z,40.10
2022-08-17T12:03:58.329Z,39.77
2022-08-17T12:13:58.393Z,36.73
2022-08-17T12:23:58.360Z,37.46
2022-08-17T12:33:58.513Z,36.39
2022-08-17T12:43:58.449Z,37.06
2022-08-17T12:53:58.554Z,39.25
2022-08-17T13:03:58.517Z,38.97
2022-08-17T13:13:58.576Z,38.74
2022-08-17T13:23:58.752Z,37.75
2022-08-17T13:33:58.803Z,38.32
2022-08-17T13:43:58.791Z,38.04
2022-08-17T13:53:58.715Z,37.25
2022-08-17T14:03:58.873Z,35.76
2022-08-17T14:13:58.783Z,36.49
2022-08-17T14:23:58.655Z,36.89
2022-08-17T14:33:58.771Z,37.31
2022-08-17T14:43:58.835Z,36.84
2022-08-17T14:53:58.932Z,37.93
2022-08-17T15:03:58.679Z,39.26
2022-08-17T15:13:58.818Z,39.40
2022-08-17T15:23:59.056Z,44.94
2022-08-17T15:33:58.807Z,48.76
2022-08-17T15:43:58.933Z,50.55
2022-08-17T15:53:59.056Z,51.73
2022-08-17T16:04:04.035Z,53.48
2022-08-17T16:13:58.872Z,50.54
2022-08-17T16:23:58.868Z,53.49
2022-08-17T16:34:15.652Z,55.98
2022-08-17T16:43:58.987Z,57.98
2022-08-17T16:53:59.289Z,61.77
2022-08-17T17:03:58.883Z,63.67
2022-08-17T17:13:58.826Z,59.08
2022-08-17T17:23:59.035Z,58.20
2022-08-17T17:33:58.998Z,58.00
2022-08-17T17:43:59.104Z,58.92
2022-08-17T17:53:58.889Z,61.14
2022-08-17T18:03:59.028Z,62.67
2022-08-17T18:13:59.010Z,64.45
2022-08-17T18:23:59.200Z,66.18
2022-08-17T18:33:59.085Z,67.28
2022-08-17T18:43:59.112Z,69.81
2022-08-17T18:53:59.536Z,71.96
2022-08-17T19:03:59.335Z,72.28
2022-08-17T19:13:59.452Z,76.79
